sensor_id;sensor_type;location;lat;lon;timestamp;temperature;humidity
69893;DHT22;61212;42.688;22.176;2022-07-11T00:02:25;409.90;2355.20
69893;DHT22;61212;42.688;22.176;2022-07-11T00:09:43;409.80;2355.20
69893;DHT22;61212;42.688;22.176;2022-07-11T01:03:28;410.40;2355.20
69893;DHT22;61212;42.688;22.176;2022-07-11T01:32:59;410.20;2355.20
69893;DHT22;61212;42.688;22.176;2022-07-11T01:35:26;409.90;2355.20
69893;DHT22;61212;42.688;22.176;2022-07-11T01:37:52;409.70;2355.20
69893;DHT22;61212;42.688;22.176;2022-07-11T01:40:18;409.60;2355.20
69893;DHT22;61212;42.688;22.176;2022-07-11T01:42:43;409.80;2355.20
69893;DHT22;61212;42.688;22.176;2022-07-11T01:45:10;409.60;2355.20
69893;DHT22;61212;42.688;22.176;2022-07-11T01:47:37;409.60;2355.20
69893;DHT22;61212;42.688;22.176;2022-07-11T03:59:42;410.40;2355.20
69893;DHT22;61212;42.688;22.176;2022-07-11T04:02:08;410.20;2355.20
69893;DHT22;61212;42.688;22.176;2022-07-11T04:07:03;435.20;2355.20
69893;DHT22;61212;42.688;22.176;2022-07-11T04:09:29;410.40;2355.20
69893;DHT22;61212;42.688;22.176;2022-07-11T04:11:56;435.50;2355.20
69893;DHT22;61212;42.688;22.176;2022-07-11T04:14:22;435.90;2355.20
69893;DHT22;61212;42.688;22.176;2022-07-11T04:16:48;436.10;2355.20
69893;DHT22;61212;42.688;22.176;2022-07-11T04:19:13;435.90;2355.20
69893;DHT22;61212;42.688;22.176;2022-07-11T04:21:39;436.10;2355.20
69893;DHT22;61212;42.688;22.176;2022-07-11T04:24:05;435.90;2355.20
69893;DHT22;61212;42.688;22.176;2022-07-11T04:26:31;436.10;2355.20
69893;DHT22;61212;42.688;22.176;2022-07-11T04:28:57;460.80;2380.80
69893;DHT22;61212;42.688;22.176;2022-07-11T04:31:22;436.00;2355.20
69893;DHT22;61212;42.688;22.176;2022-07-11T04:33:48;436.10;2355.20
69893;DHT22;61212;42.688;22.176;2022-07-11T04:36:14;460.90;2380.80
69893;DHT22;61212;42.688;22.176;2022-07-11T04:38:40;461.10;2380.80
69893;DHT22;61212;42.688;22.176;2022-07-11T04:41:09;461.10;2380.80
69893;DHT22;61212;42.688;22.176;2022-07-11T06:43:25;537.80;2406.40
69893;DHT22;61212;42.688;22.176;2022-07-11T06:45:51;512.90;2380.80
69893;DHT22;61212;42.688;22.176;2022-07-11T06:48:17;512.90;2380.80
69893;DHT22;61212;42.688;22.176;2022-07-11T06:50:43;537.80;2406.40
69893;DHT22;61212;42.688;22.176;2022-07-11T06:58:01;563.80;2432.00
69893;DHT22;61212;42.688;22.176;2022-07-11T07:00:27;563.70;2432.00
69893;DHT22;61212;42.688;22.176;2022-07-11T07:54:43;538.00;2406.40
69893;DHT22;61212;42.688;22.176;2022-07-11T07:57:08;538.00;2406.40
69893;DHT22;61212;42.688;22.176;2022-07-11T07:59:34;537.80;2406.40
69893;DHT22;61212;42.688;22.176;2022-07-11T08:02:00;537.80;2406.40
69893;DHT22;61212;42.688;22.176;2022-07-11T08:04:26;537.90;2406.40
69893;DHT22;61212;42.688;22.176;2022-07-11T08:06:52;538.00;2406.40
69893;DHT22;61212;42.688;22.176;2022-07-11T08:09:17;537.70;2406.40
69893;DHT22;61212;42.688;22.176;2022-07-11T08:11:43;537.80;2406.40
69893;DHT22;61212;42.688;22.176;2022-07-11T08:43:31;538.00;2406.40
69893;DHT22;61212;42.688;22.176;2022-07-11T08:45:59;512.90;2380.80
69893;DHT22;61212;42.688;22.176;2022-07-11T08:48:26;537.70;2406.40
69893;DHT22;61212;42.688;22.176;2022-07-11T08:50:52;563.30;2432.00
69893;DHT22;61212;42.688;22.176;2022-07-11T08:53:18;538.50;2406.40
69893;DHT22;61212;42.688;22.176;2022-07-11T09:03:04;563.70;2252.80
69893;DHT22;61212;42.688;22.176;2022-07-11T09:05:31;563.60;2432.00
69893;DHT22;61212;42.688;22.176;2022-07-11T09:07:57;563.20;2022.40
69893;DHT22;61212;42.688;22.176;2022-07-11T09:10:24;538.50;2073.60
69893;DHT22;61212;42.688;22.176;2022-07-11T09:13:07;538.40;2022.40
69893;DHT22;61212;42.688;22.176;2022-07-11T09:15:42;563.40;2176.00
69893;DHT22;61212;42.688;22.176;2022-07-11T09:18:32;538.50;2201.60
69893;DHT22;61212;42.688;22.176;2022-07-11T09:21:05;538.10;2073.60
69893;DHT22;61212;42.688;22.176;2022-07-11T09:26:52;538.40;1894.40
69893;DHT22;61212;42.688;22.176;2022-07-11T10:08:54;563.50;2099.20
69893;DHT22;61212;42.688;22.176;2022-07-11T10:11:20;563.40;1996.80
69893;DHT22;61212;42.688;22.176;2022-07-11T10:13:46;563.70;2432.00
69893;DHT22;61212;42.688;22.176;2022-07-11T10:21:54;563.80;2073.60
69893;DHT22;61212;42.688;22.176;2022-07-11T10:29:57;563.50;2022.40
69893;DHT22;61212;42.688;22.176;2022-07-11T10:32:23;563.60;2432.00
69893;DHT22;61212;42.688;22.176;2022-07-11T10:35:10;563.70;2329.60
69893;DHT22;61212;42.688;22.176;2022-07-11T10:37:52;564.00;1894.40
69893;DHT22;61212;42.688;22.176;2022-07-11T10:40:42;563.70;2099.20
69893;DHT22;61212;42.688;22.176;2022-07-11T10:43:09;563.80;2432.00
69893;DHT22;61212;42.688;22.176;2022-07-11T10:46:13;563.60;2073.60
69893;DHT22;61212;42.688;22.176;2022-07-11T10:52:07;564.10;2432.00
69893;DHT22;61212;42.688;22.176;2022-07-11T11:00:04;563.70;2329.60
69893;DHT22;61212;42.688;22.176;2022-07-11T11:02:30;563.20;2022.40
69893;DHT22;61212;42.688;22.176;2022-07-11T11:07:51;538.50;1894.40
69893;DHT22;61212;42.688;22.176;2022-07-11T11:15:42;538.20;2201.60
69893;DHT22;61212;42.688;22.176;2022-07-11T11:18:41;538.20;2252.80
69893;DHT22;61212;42.688;22.176;2022-07-11T11:23:41;563.20;2432.00
69893;DHT22;61212;42.688;22.176;2022-07-11T11:28:33;563.40;2432.00
69893;DHT22;61212;42.688;22.176;2022-07-11T11:31:01;563.60;2432.00
69893;DHT22;61212;42.688;22.176;2022-07-11T11:33:29;563.80;2355.20
69893;DHT22;61212;42.688;22.176;2022-07-11T11:36:08;563.70;2124.80
69893;DHT22;61212;42.688;22.176;2022-07-11T11:38:39;563.60;2432.00
69893;DHT22;61212;42.688;22.176;2022-07-11T11:41:07;563.70;2150.40
69893;DHT22;61212;42.688;22.176;2022-07-11T11:43:35;563.80;2304.00
69893;DHT22;61212;42.688;22.176;2022-07-11T11:46:01;563.60;2380.80
69893;DHT22;61212;42.688;22.176;2022-07-11T11:48:34;563.40;2150.40
69893;DHT22;61212;42.688;22.176;2022-07-11T11:51:05;563.40;2227.20
69893;DHT22;61212;42.688;22.176;2022-07-11T11:53:47;563.70;2355.20
69893;DHT22;61212;42.688;22.176;2022-07-11T11:56:27;563.80;2150.40
69893;DHT22;61212;42.688;22.176;2022-07-11T12:01:30;563.60;2176.00
69893;DHT22;61212;42.688;22.176;2022-07-11T12:03:57;563.50;1971.20
69893;DHT22;61212;42.688;22.176;2022-07-11T12:06:30;563.60;2432.00
69893;DHT22;61212;42.688;22.176;2022-07-11T12:11:25;563.80;2099.20
69893;DHT22;61212;42.688;22.176;2022-07-11T12:14:02;563.80;2201.60
69893;DHT22;61212;42.688;22.176;2022-07-11T12:16:29;563.90;2304.00
69893;DHT22;61212;42.688;22.176;2022-07-11T12:19:19;563.60;2252.80
69893;DHT22;61212;42.688;22.176;2022-07-11T12:22:05;563.60;2201.60
69893;DHT22;61212;42.688;22.176;2022-07-11T12:24:31;563.70;2329.60
69893;DHT22;61212;42.688;22.176;2022-07-11T12:26:57;563.40;2048.00
69893;DHT22;61212;42.688;22.176;2022-07-11T12:29:25;563.30;2227.20
69893;DHT22;61212;42.688;22.176;2022-07-11T12:32:12;538.50;1920.00
69893;DHT22;61212;42.688;22.176;2022-07-11T12:37:14;563.30;2124.80
69893;DHT22;61212;42.688;22.176;2022-07-11T12:39:48;563.70;2406.40
69893;DHT22;61212;42.688;22.176;2022-07-11T12:42:35;564.10;2201.60
69893;DHT22;61212;42.688;22.176;2022-07-11T12:45:04;564.00;2227.20
69893;DHT22;61212;42.688;22.176;2022-07-11T12:47:47;563.90;2227.20
69893;DHT22;61212;42.688;22.176;2022-07-11T12:50:15;563.80;2406.40
69893;DHT22;61212;42.688;22.176;2022-07-11T12:53:01;563.60;1971.20
69893;DHT22;61212;42.688;22.176;2022-07-11T12:55:30;563.70;2201.60
69893;DHT22;61212;42.688;22.176;2022-07-11T12:58:13;563.80;2073.60
69893;DHT22;61212;42.688;22.176;2022-07-11T13:00:58;563.60;2048.00
69893;DHT22;61212;42.688;22.176;2022-07-11T13:03:33;563.20;2176.00
69893;DHT22;61212;42.688;22.176;2022-07-11T13:05:59;563.30;2380.80
69893;DHT22;61212;42.688;22.176;2022-07-11T13:12:29;563.30;2150.40
69893;DHT22;61212;42.688;22.176;2022-07-11T13:15:04;563.30;2073.60
69893;DHT22;61212;42.688;22.176;2022-07-11T13:17:41;563.60;2329.60
69893;DHT22;61212;42.688;22.176;2022-07-11T13:20:09;563.40;2201.60
69893;DHT22;61212;42.688;22.176;2022-07-11T13:22:36;563.20;2073.60
69893;DHT22;61212;42.688;22.176;2022-07-11T13:25:03;563.40;2355.20
69893;DHT22;61212;42.688;22.176;2022-07-11T13:27:29;563.60;2150.40
69893;DHT22;61212;42.688;22.176;2022-07-11T13:29:55;563.80;2355.20
69893;DHT22;61212;42.688;22.176;2022-07-11T13:32:22;563.70;2073.60
69893;DHT22;61212;42.688;22.176;2022-07-11T13:34:48;564.10;2099.20
69893;DHT22;61212;42.688;22.176;2022-07-11T13:37:17;563.60;2073.60
69893;DHT22;61212;42.688;22.176;2022-07-11T13:39:43;563.70;2355.20
69893;DHT22;61212;42.688;22.176;2022-07-11T13:42:09;563.80;2124.80
69893;DHT22;61212;42.688;22.176;2022-07-11T13:44:35;563.70;2252.80
69893;DHT22;61212;42.688;22.176;2022-07-11T13:47:02;563.60;1971.20
69893;DHT22;61212;42.688;22.176;2022-07-11T13:49:27;563.60;2304.00
69893;DHT22;61212;42.688;22.176;2022-07-11T13:51:55;563.80;2227.20
69893;DHT22;61212;42.688;22.176;2022-07-11T13:54:21;564.10;2176.00
69893;DHT22;61212;42.688;22.176;2022-07-11T13:56:46;564.00;2176.00
69893;DHT22;61212;42.688;22.176;2022-07-11T13:59:12;563.90;2176.00
69893;DHT22;61212;42.688;22.176;2022-07-11T14:04:04;563.70;1894.40
69893;DHT22;61212;42.688;22.176;2022-07-11T14:06:30;563.60;2099.20
69893;DHT22;61212;42.688;22.176;2022-07-11T14:08:56;563.90;2329.60
69893;DHT22;61212;42.688;22.176;2022-07-11T14:11:24;564.00;1945.60
69893;DHT22;61212;42.688;22.176;2022-07-11T14:13:50;564.10;1868.80
69893;DHT22;61212;42.688;22.176;2022-07-11T14:16:16;563.90;1996.80
69893;DHT22;61212;42.688;22.176;2022-07-11T14:18:43;563.70;2073.60
69893;DHT22;61212;42.688;22.176;2022-07-11T14:21:09;563.70;2252.80
69893;DHT22;61212;42.688;22.176;2022-07-11T14:23:35;563.60;2048.00
69893;DHT22;61212;42.688;22.176;2022-07-11T14:26:01;563.50;2329.60
69893;DHT22;61212;42.688;22.176;2022-07-11T14:28:27;563.60;1996.80
69893;DHT22;61212;42.688;22.176;2022-07-11T14:30:52;563.60;1894.40
69893;DHT22;61212;42.688;22.176;2022-07-11T14:33:18;563.60;1817.60
69893;DHT22;61212;42.688;22.176;2022-07-11T14:35:45;563.50;1945.60
69893;DHT22;61212;42.688;22.176;2022-07-11T14:38:11;563.60;1971.20
69893;DHT22;61212;42.688;22.176;2022-07-11T14:40:37;563.50;1868.80
69893;DHT22;61212;42.688;22.176;2022-07-11T14:43:03;563.40;1971.20
69893;DHT22;61212;42.688;22.176;2022-07-11T14:45:28;563.30;2150.40
69893;DHT22;61212;42.688;22.176;2022-07-11T14:47:54;563.40;1843.20
69893;DHT22;61212;42.688;22.176;2022-07-11T14:50:20;563.60;2073.60
69893;DHT22;61212;42.688;22.176;2022-07-11T14:52:46;563.50;1971.20
69893;DHT22;61212;42.688;22.176;2022-07-11T14:55:12;563.40;1920.00
69893;DHT22;61212;42.688;22.176;2022-07-11T14:57:38;563.40;1843.20
69893;DHT22;61212;42.688;22.176;2022-07-11T15:00:04;563.20;1868.80
69893;DHT22;61212;42.688;22.176;2022-07-11T15:02:30;563.20;1920.00
69893;DHT22;61212;42.688;22.176;2022-07-11T15:05:14;563.20;1868.80
69893;DHT22;61212;42.688;22.176;2022-07-11T15:07:59;563.30;1971.20
69893;DHT22;61212;42.688;22.176;2022-07-11T15:10:43;563.50;2304.00
69893;DHT22;61212;42.688;22.176;2022-07-11T15:13:27;563.40;1996.80
69893;DHT22;61212;42.688;22.176;2022-07-11T15:15:52;563.40;2099.20
69893;DHT22;61212;42.688;22.176;2022-07-11T15:18:18;563.20;1843.20
69893;DHT22;61212;42.688;22.176;2022-07-11T15:20:44;563.20;1971.20
69893;DHT22;61212;42.688;22.176;2022-07-11T15:23:10;563.20;1996.80
69893;DHT22;61212;42.688;22.176;2022-07-11T15:25:35;563.20;1945.60
69893;DHT22;61212;42.688;22.176;2022-07-11T15:28:01;538.50;1868.80
69893;DHT22;61212;42.688;22.176;2022-07-11T15:30:27;538.40;1792.00
69893;DHT22;61212;42.688;22.176;2022-07-11T15:32:53;538.50;1945.60
69893;DHT22;61212;42.688;22.176;2022-07-11T15:35:19;538.30;1920.00
69893;DHT22;61212;42.688;22.176;2022-07-11T15:37:45;563.20;2329.60
69893;DHT22;61212;42.688;22.176;2022-07-11T15:40:11;538.50;1843.20
69893;DHT22;61212;42.688;22.176;2022-07-11T15:42:37;538.50;2150.40
69893;DHT22;61212;42.688;22.176;2022-07-11T15:45:04;563.30;2304.00
69893;DHT22;61212;42.688;22.176;2022-07-11T15:47:30;563.20;1894.40
69893;DHT22;61212;42.688;22.176;2022-07-11T15:49:57;563.30;2201.60
69893;DHT22;61212;42.688;22.176;2022-07-11T15:52:22;563.20;1945.60
69893;DHT22;61212;42.688;22.176;2022-07-11T15:54:48;563.20;2278.40
69893;DHT22;61212;42.688;22.176;2022-07-11T15:57:14;563.20;2406.40
69893;DHT22;61212;42.688;22.176;2022-07-11T15:59:40;563.20;2432.00
69893;DHT22;61212;42.688;22.176;2022-07-11T16:02:06;563.20;2073.60
69893;DHT22;61212;42.688;22.176;2022-07-11T16:04:32;538.50;1817.60
69893;DHT22;61212;42.688;22.176;2022-07-11T16:06:57;538.20;1996.80
69893;DHT22;61212;42.688;22.176;2022-07-11T16:09:23;538.30;1766.40
69893;DHT22;61212;42.688;22.176;2022-07-11T16:11:49;538.50;2073.60
69893;DHT22;61212;42.688;22.176;2022-07-11T16:16:42;538.50;1894.40
69893;DHT22;61212;42.688;22.176;2022-07-11T16:19:08;538.20;1945.60
69893;DHT22;61212;42.688;22.176;2022-07-11T16:21:34;538.30;1945.60
69893;DHT22;61212;42.688;22.176;2022-07-11T16:24:00;538.30;2022.40
69893;DHT22;61212;42.688;22.176;2022-07-11T16:26:26;538.20;2176.00
69893;DHT22;61212;42.688;22.176;2022-07-11T16:31:20;538.30;2227.20
69893;DHT22;61212;42.688;22.176;2022-07-11T16:33:45;538.10;2176.00
69893;DHT22;61212;42.688;22.176;2022-07-11T16:36:11;538.00;2304.00
69893;DHT22;61212;42.688;22.176;2022-07-11T16:38:37;538.00;2073.60
69893;DHT22;61212;42.688;22.176;2022-07-11T16:41:03;538.00;2099.20
69893;DHT22;61212;42.688;22.176;2022-07-11T16:43:47;537.90;2124.80
69893;DHT22;61212;42.688;22.176;2022-07-11T16:53:33;537.90;2099.20
69893;DHT22;61212;42.688;22.176;2022-07-11T16:56:00;537.90;2176.00
69893;DHT22;61212;42.688;22.176;2022-07-11T16:58:26;537.80;2201.60
69893;DHT22;61212;42.688;22.176;2022-07-11T20:29:31;410.20;2355.20
69893;DHT22;61212;42.688;22.176;2022-07-11T20:31:57;410.20;2355.20
69893;DHT22;61212;42.688;22.176;2022-07-11T20:34:22;410.00;2355.20
69893;DHT22;61212;42.688;22.176;2022-07-11T20:36:48;410.30;2355.20
69893;DHT22;61212;42.688;22.176;2022-07-11T20:39:14;410.20;2355.20
69893;DHT22;61212;42.688;22.176;2022-07-11T20:41:39;410.20;2355.20
69893;DHT22;61212;42.688;22.176;2022-07-11T20:44:05;410.20;2355.20
69893;DHT22;61212;42.688;22.176;2022-07-11T20:46:31;410.20;2355.20
69893;DHT22;61212;42.688;22.176;2022-07-11T20:48:57;410.20;2355.20
69893;DHT22;61212;42.688;22.176;2022-07-11T20:51:23;410.00;2355.20
69893;DHT22;61212;42.688;22.176;2022-07-11T20:53:48;410.10;2355.20
69893;DHT22;61212;42.688;22.176;2022-07-11T20:56:14;410.00;2355.20
69893;DHT22;61212;42.688;22.176;2022-07-11T20:58:40;409.70;2355.20
69893;DHT22;61212;42.688;22.176;2022-07-11T21:01:06;384.80;2329.60
69893;DHT22;61212;42.688;22.176;2022-07-11T21:03:32;384.70;2329.60
69893;DHT22;61212;42.688;22.176;2022-07-11T21:05:58;384.60;2278.40
69893;DHT22;61212;42.688;22.176;2022-07-11T21:08:25;384.50;2329.60
69893;DHT22;61212;42.688;22.176;2022-07-11T21:13:17;384.70;2329.60
69893;DHT22;61212;42.688;22.176;2022-07-11T21:15:43;384.60;2329.60
69893;DHT22;61212;42.688;22.176;2022-07-11T21:18:09;384.60;2176.00
69893;DHT22;61212;42.688;22.176;2022-07-11T21:20:34;384.30;2329.60
69893;DHT22;61212;42.688;22.176;2022-07-11T21:23:00;384.30;2329.60
69893;DHT22;61212;42.688;22.176;2022-07-11T21:27:52;384.50;2329.60
69893;DHT22;61212;42.688;22.176;2022-07-11T21:44:57;384.20;2329.60
69893;DHT22;61212;42.688;22.176;2022-07-11T21:47:22;384.00;2329.60
69893;DHT22;61212;42.688;22.176;2022-07-11T21:49:48;359.30;2329.60
69893;DHT22;61212;42.688;22.176;2022-07-11T22:19:01;359.20;2329.60
69893;DHT22;61212;42.688;22.176;2022-07-11T22:21:26;359.00;2329.60
69893;DHT22;61212;42.688;22.176;2022-07-11T22:23:52;359.00;2329.60
69893;DHT22;61212;42.688;22.176;2022-07-11T22:26:18;358.80;2329.60
69893;DHT22;61212;42.688;22.176;2022-07-11T22:28:47;358.80;2329.60
69893;DHT22;61212;42.688;22.176;2022-07-11T22:31:14;358.80;2329.60
69893;DHT22;61212;42.688;22.176;2022-07-11T22:33:41;358.80;2329.60
69893;DHT22;61212;42.688;22.176;2022-07-11T22:36:07;358.70;2329.60
69893;DHT22;61212;42.688;22.176;2022-07-11T22:38:33;358.60;2329.60
69893;DHT22;61212;42.688;22.176;2022-07-11T22:40:58;358.80;2329.60
69893;DHT22;61212;42.688;22.176;2022-07-11T23:22:39;333.70;2329.60
69893;DHT22;61212;42.688;22.176;2022-07-11T23:25:06;333.50;2329.60
69893;DHT22;61212;42.688;22.176;2022-07-11T23:27:32;333.40;2329.60
69893;DHT22;61212;42.688;22.176;2022-07-11T23:29:58;333.50;2329.60
69893;DHT22;61212;42.688;22.176;2022-07-11T23:32:24;333.20;2329.60
69893;DHT22;61212;42.688;22.176;2022-07-11T23:34:50;332.90;2329.60
69893;DHT22;61212;42.688;22.176;2022-07-11T23:37:17;333.00;2329.60
69893;DHT22;61212;42.688;22.176;2022-07-11T23:39:43;333.00;2329.60
69893;DHT22;61212;42.688;22.176;2022-07-11T23:42:12;333.10;2329.60
69893;DHT22;61212;42.688;22.176;2022-07-11T23:44:39;333.30;2329.60
69893;DHT22;61212;42.688;22.176;2022-07-11T23:47:05;333.30;2329.60
69893;DHT22;61212;42.688;22.176;2022-07-11T23:49:31;333.30;2329.60
69893;DHT22;61212;42.688;22.176;2022-07-11T23:51:57;333.40;2329.60
69893;DHT22;61212;42.688;22.176;2022-07-11T23:54:22;333.50;2329.60
69893;DHT22;61212;42.688;22.176;2022-07-11T23:56:48;333.40;2329.60
69893;DHT22;61212;42.688;22.176;2022-07-11T23:59:14;333.50;2329.60
